• Join FlightAware (Why Join?)
  • Login
  • US Flag 
11:29AM EDT


 

Airport Tracker/Info


-or-


 

Live Flight TrackerFlight Track Log ✈ EGF3681 ✈ 30-Jun-2013 ✈ KORD - KDAY

Flight Track Log - Related Links

Times and Time Zones

All times are in EDT time to prevent confusion due to time zone crossing. See the EGF3681 flight status page for this flight to view local times or setup timezone preferences in your user account.

Time Position Orientation Groundspeed Altitude Reporting Facility
EDT Latitude Longitude Course Direction KTS MPH feet Rate Location/Type
12:10AM 42.0000 -87.9333 312° West 170 196 2,000  Level Chicago TRACON
12:11AM 42.0333 -87.9833 312° West 210 242 4,100 2,160 Climbing Chicago TRACON
12:12AM 42.0500 -87.9333 66° East 203 234 6,200 1,920 Climbing Chicago TRACON
12:13AM 42.0378 -87.8189 98° East 235 270 8,500 1,800 Climbing Chicago Center
12:14AM 42.0256 -87.7206 99° East 261 300 10,500 1,560 Climbing Chicago Center
12:15AM 42.0125 -87.6100 99° East 293 337 11,700 1,260 Climbing Chicago Center
12:16AM 41.9967 -87.4869 100° East 326 375 13,100 1,320 Climbing Chicago Center
12:17AM 41.9819 -87.3603 99° East 341 392 14,400 1,260 Climbing Chicago Center
12:18AM 41.9658 -87.2319 100° East 347 399 15,700 1,260 Climbing Chicago Center
12:19AM 41.9358 -87.1042 107° East 355 409 17,000 1,140 Climbing Chicago Center
12:20AM 41.8947 -86.9792 114° Southeast 365 420 18,000 1,020 Climbing Chicago Center
12:21AM 41.8533 -86.8500 113° Southeast 375 432 19,100 1,140 Climbing Chicago Center
12:22AM 41.8131 -86.7181 112° Southeast 382 440 20,300 1,140 Climbing Chicago Center
12:23AM 41.7692 -86.5744 112° Southeast 393 452 21,400 1,080 Climbing Chicago Center
12:24AM 41.7283 -86.4356 111° Southeast 399 459 22,500 960 Climbing Chicago Center
12:25AM 41.6478 -86.3308 136° Southeast 406 467 23,400 840 Climbing Chicago Center
12:26AM 41.5628 -86.2300 138° Southeast 411 473 24,300 660 Climbing Chicago Center
12:27AM 41.4781 -86.1239 137° Southeast 418 481 24,800 300 Climbing Chicago Center
12:28AM 41.3911 -86.0147 137° Southeast 430 495 25,000 60 Climbing Chicago Center
12:29AM 41.3019 -85.9044 137° Southeast 440 506 25,000  Level Chicago Center
12:30AM 41.1919 -85.7694 137° Southeast 450 518 25,000  Level Chicago Center
12:31AM 41.1014 -85.6567 137° Southeast 452 520 25,000  Level Chicago Center
12:32AM 41.0094 -85.5439 137° Southeast 453 521 25,000  Level Chicago Center
12:33AM 40.9203 -85.4344 137° Southeast 443 510 25,000  Level Chicago Center
12:34AM 40.8292 -85.3228 137° Southeast 447 514 25,000 -1,020 Level Chicago Center
12:35AM 40.7378 -85.2103 137° Southeast 452 520 23,000 -2,220 Descending Chicago Center
12:36AM 40.6494 -85.1047 138° Southeast 439 505 20,600 -2,460 Descending Chicago Center
12:37AM 40.5694 -85.0097 138° Southeast 423 487 18,300 -2,400 Descending Indianapolis Center
12:38AM 40.5064 -84.9367 139° Southeast 401 461 16,700 -2,100 Descending Indianapolis Center
12:39AM 40.4258 -84.8469 140° Southeast 383 441 14,700 -1,980 Descending Indianapolis Center
12:40AM 40.3353 -84.7692 147° Southeast 385 443 12,800 -1,740 Descending Indianapolis Center
12:41AM 40.2492 -84.6925 146° Southeast 375 432 11,200 -1,380 Descending Indianapolis Center
12:42AM 40.1767 -84.6022 136° Southeast 311 358 10,100 -1,380 Descending Indianapolis Center
12:43AM 40.1239 -84.5267 132° Southeast 271 312 8,400 -1,980 Descending Indianapolis Center
12:44AM 40.0725 -84.4567 134° Southeast 267 307 6,200 -1,980 Descending Indianapolis Center
12:45AM 40.0158 -84.3972 141° Southeast 255 293 4,500 -1,500 Descending Indianapolis Center
12:46AM 39.9642 -84.3494 145° Southeast 233 268 3,200 -1,080 Descending Indianapolis Center
12:47AM 39.9147 -84.3186 154° Southeast 173 199 2,400 -840 Descending Indianapolis Center
12:48AM 39.8850 -84.2833 138° Southeast 130 150 1,600 -840 Descending Indianapolis Center